Time;durP1;ratioP1;P1;durP2;ratioP2;P2;SDS_P1;SDS_P2;PMS_P1;PMS_P2;Temp;Humidity;BMP_temperature;BMP_pressure;BME280_temperature;BME280_humidity;BME280_pressure;Samples;Min_cycle;Max_cycle;Signal;HPM_P1;HPM_P2
2022/07/06 00:01:14;;;;;;;;;;;26.30;43.60;;;;;;8468969;28;19912;-42
2022/07/06 00:05:14;;;;;;;;;;;26.30;43.50;;;;;;8468352;28;19919;-42
2022/07/06 00:09:15;;;;;;;;;;;26.30;43.60;;;;;;8468565;28;19922;-42
2022/07/06 00:13:15;;;;;;;;;;;26.30;43.60;;;;;;8468750;28;20455;-43
2022/07/06 00:17:16;;;;;;;;;;;26.30;43.60;;;;;;8467857;28;20022;-43
2022/07/06 00:21:16;;;;;;;;;;;26.30;43.60;;;;;;8468196;28;19934;-42
2022/07/06 00:25:17;;;;;;;;;;;26.30;43.70;;;;;;8467976;28;19938;-42
2022/07/06 00:29:17;;;;;;;;;;;26.20;43.60;;;;;;8467446;28;19949;-42
2022/07/06 00:33:18;;;;;;;;;;;26.20;43.60;;;;;;8468305;28;19931;-42
2022/07/06 00:37:18;;;;;;;;;;;26.20;44.20;;;;;;8467416;28;19915;-42
2022/07/06 00:41:18;;;;;;;;;;;26.20;44.20;;;;;;8466998;28;20060;-43
2022/07/06 00:45:19;;;;;;;;;;;26.20;43.60;;;;;;8467392;28;19938;-44
2022/07/06 00:53:39;;;;;;;;;;;26.20;43.70;;;;;;8467203;28;19958;-43
2022/07/06 00:57:40;;;;;;;;;;;26.20;43.70;;;;;;8466906;28;19918;-43
2022/07/06 01:01:41;;;;;;;;;;;26.20;43.70;;;;;;8466460;28;19911;-43
2022/07/06 01:05:41;;;;;;;;;;;26.20;43.70;;;;;;8465688;28;19918;-44
2022/07/06 01:09:42;;;;;;;;;;;26.10;43.60;;;;;;8466554;28;19916;-44
2022/07/06 01:13:43;;;;;;;;;;;26.10;43.60;;;;;;8466423;28;19998;-43
2022/07/06 01:17:43;;;;;;;;;;;26.10;43.70;;;;;;8466705;28;19934;-43
2022/07/06 01:21:44;;;;;;;;;;;26.10;43.60;;;;;;8466307;28;19911;-43
2022/07/06 01:25:44;;;;;;;;;;;26.10;43.60;;;;;;8465837;28;20002;-43
2022/07/06 01:29:45;;;;;;;;;;;26.10;43.70;;;;;;8465860;28;20416;-43
2022/07/06 01:33:45;;;;;;;;;;;26.00;43.60;;;;;;8466280;28;20322;-43
2022/07/06 01:37:46;;;;;;;;;;;26.00;43.60;;;;;;8465505;28;19911;-43
2022/07/06 01:41:46;;;;;;;;;;;26.00;43.60;;;;;;8465889;28;19935;-42
2022/07/06 01:45:47;;;;;;;;;;;26.00;43.60;;;;;;8465424;28;20029;-43
2022/07/06 01:49:47;;;;;;;;;;;26.00;43.60;;;;;;8464274;28;19963;-42
2022/07/06 01:53:48;;;;;;;;;;;26.00;43.70;;;;;;8465869;28;19918;-43
2022/07/06 01:57:48;;;;;;;;;;;26.00;43.60;;;;;;8465060;28;19918;-43
2022/07/06 02:01:48;;;;;;;;;;;25.90;43.60;;;;;;8464460;28;19912;-43
2022/07/06 02:05:49;;;;;;;;;;;25.90;43.60;;;;;;8465140;28;19908;-44
2022/07/06 02:09:49;;;;;;;;;;;25.90;43.60;;;;;;8464851;28;20392;-43
2022/07/06 02:13:50;;;;;;;;;;;25.90;43.60;;;;;;8464153;28;20253;-43
2022/07/06 02:17:50;;;;;;;;;;;25.90;43.60;;;;;;8464763;28;20370;-43
2022/07/06 02:21:51;;;;;;;;;;;25.90;43.60;;;;;;8464296;28;19908;-45
2022/07/06 02:25:51;;;;;;;;;;;25.90;43.60;;;;;;8463365;28;19938;-44
2022/07/06 02:29:52;;;;;;;;;;;25.90;43.60;;;;;;8463132;28;19915;-44
2022/07/06 02:33:52;;;;;;;;;;;25.90;43.60;;;;;;8462997;28;19964;-43
2022/07/06 02:37:52;;;;;;;;;;;25.90;43.70;;;;;;8462227;28;19911;-43
2022/07/06 02:41:53;;;;;;;;;;;25.90;43.60;;;;;;8462838;28;19918;-43
2022/07/06 02:45:53;;;;;;;;;;;25.90;43.70;;;;;;8462805;28;19907;-43
2022/07/06 02:49:54;;;;;;;;;;;25.90;43.70;;;;;;8462083;28;19965;-43
2022/07/06 02:53:54;;;;;;;;;;;25.80;43.60;;;;;;8462392;28;20026;-45
2022/07/06 02:57:55;;;;;;;;;;;25.80;43.60;;;;;;8462002;28;19994;-43
2022/07/06 03:01:55;;;;;;;;;;;25.80;43.60;;;;;;8460622;28;19912;-43
2022/07/06 03:05:56;;;;;;;;;;;25.80;43.60;;;;;;8462116;28;19932;-43
2022/07/06 03:09:56;;;;;;;;;;;25.80;43.60;;;;;;8462200;28;19931;-43
2022/07/06 03:13:56;;;;;;;;;;;25.80;43.70;;;;;;8461532;28;19911;-43
2022/07/06 03:17:57;;;;;;;;;;;25.70;43.60;;;;;;8461924;28;19912;-43
2022/07/06 03:21:58;;;;;;;;;;;25.70;43.60;;;;;;8461730;28;20002;-44
2022/07/06 03:25:58;;;;;;;;;;;25.70;43.60;;;;;;8424362;28;1061152;-43
2022/07/06 03:29:59;;;;;;;;;;;25.70;43.70;;;;;;8463221;28;19923;-43
2022/07/06 03:33:59;;;;;;;;;;;25.70;43.60;;;;;;8463034;28;20414;-43
2022/07/06 03:38:00;;;;;;;;;;;25.70;43.60;;;;;;8462588;28;20391;-43
2022/07/06 03:42:00;;;;;;;;;;;25.70;43.60;;;;;;8462932;28;19918;-45
2022/07/06 03:46:00;;;;;;;;;;;25.60;43.60;;;;;;8462940;28;20377;-43
2022/07/06 03:50:01;;;;;;;;;;;25.60;43.60;;;;;;8462536;28;20271;-43
2022/07/06 03:54:01;;;;;;;;;;;25.60;43.60;;;;;;8462803;28;20283;-44
2022/07/06 03:58:02;;;;;;;;;;;25.60;43.60;;;;;;8462687;28;20000;-43
2022/07/06 04:02:02;;;;;;;;;;;25.60;43.60;;;;;;8462058;28;19941;-43
2022/07/06 04:06:03;;;;;;;;;;;25.60;43.60;;;;;;8462560;28;20287;-43
2022/07/06 04:10:03;;;;;;;;;;;25.60;43.70;;;;;;8462208;28;19919;-43
2022/07/06 04:14:04;;;;;;;;;;;25.60;43.60;;;;;;8468019;28;20002;-43
2022/07/06 04:18:04;;;;;;;;;;;25.60;43.60;;;;;;8468349;28;19969;-43
2022/07/06 04:22:05;;;;;;;;;;;25.50;44.10;;;;;;8468311;28;20316;-44
2022/07/06 04:26:06;;;;;;;;;;;25.60;43.60;;;;;;8467951;28;19916;-43
2022/07/06 04:30:06;;;;;;;;;;;25.50;43.60;;;;;;8468526;28;19926;-43
2022/07/06 04:34:07;;;;;;;;;;;25.50;43.60;;;;;;8467933;28;19970;-43
2022/07/06 04:38:07;;;;;;;;;;;25.50;43.60;;;;;;8467202;28;19919;-44
2022/07/06 04:42:08;;;;;;;;;;;25.50;43.60;;;;;;8467792;28;19979;-45
2022/07/06 04:46:08;;;;;;;;;;;25.50;43.60;;;;;;8467547;28;20375;-44
2022/07/06 04:50:09;;;;;;;;;;;25.50;43.60;;;;;;8467086;28;19919;-43
2022/07/06 04:54:09;;;;;;;;;;;25.40;43.60;;;;;;8467176;28;19994;-44
2022/07/06 04:58:10;;;;;;;;;;;25.50;43.60;;;;;;8466974;28;19908;-43
2022/07/06 05:02:10;;;;;;;;;;;25.50;43.60;;;;;;8466442;28;20284;-43
2022/07/06 05:06:11;;;;;;;;;;;25.50;43.60;;;;;;8466959;28;20017;-43
2022/07/06 05:10:12;;;;;;;;;;;25.40;43.60;;;;;;8466920;28;19972;-43
2022/07/06 05:14:12;;;;;;;;;;;25.40;43.50;;;;;;8466176;28;19918;-44
2022/07/06 05:18:13;;;;;;;;;;;25.40;43.50;;;;;;8431298;28;20308;-43
2022/07/06 05:22:13;;;;;;;;;;;25.50;43.50;;;;;;8440146;28;19918;-44
2022/07/06 05:26:13;;;;;;;;;;;25.40;43.40;;;;;;8465786;28;19986;-43
2022/07/06 05:30:15;;;;;;;;;;;25.50;43.30;;;;;;8466130;28;19961;-43
2022/07/06 05:34:15;;;;;;;;;;;25.60;43.10;;;;;;8465770;28;19912;-43
2022/07/06 05:38:16;;;;;;;;;;;25.70;42.90;;;;;;8465233;28;19930;-42
2022/07/06 05:42:17;;;;;;;;;;;25.80;42.80;;;;;;8465570;28;19912;-43
2022/07/06 05:46:17;;;;;;;;;;;25.80;42.80;;;;;;8465759;28;19919;-43
2022/07/06 05:50:17;;;;;;;;;;;25.70;42.80;;;;;;8446631;28;19999;-44
2022/07/06 05:54:18;;;;;;;;;;;25.70;42.80;;;;;;8465096;28;19912;-43
2022/07/06 05:58:18;;;;;;;;;;;25.60;42.90;;;;;;8465098;28;19908;-44
2022/07/06 06:02:19;;;;;;;;;;;25.60;42.90;;;;;;8464531;28;20713;-44
2022/07/06 06:06:19;;;;;;;;;;;25.60;42.90;;;;;;8464971;28;19911;-43
2022/07/06 06:10:21;;;;;;;;;;;25.60;43.00;;;;;;8464550;28;19924;-43
2022/07/06 06:14:22;;;;;;;;;;;25.60;42.90;;;;;;8464218;28;20288;-43
2022/07/06 06:18:22;;;;;;;;;;;25.60;43.00;;;;;;8464470;28;19940;-43
2022/07/06 06:22:23;;;;;;;;;;;25.60;43.10;;;;;;8463860;28;19912;-43
2022/07/06 06:26:23;;;;;;;;;;;25.60;43.10;;;;;;8464751;28;19938;-43
2022/07/06 06:30:24;;;;;;;;;;;25.60;43.10;;;;;;8463736;28;19920;-43
2022/07/06 06:34:24;;;;;;;;;;;25.50;43.10;;;;;;8463500;28;19935;-41
2022/07/06 06:38:29;;;;;;;;;;;25.50;43.10;;;;;;8463831;28;19919;-42
2022/07/06 06:42:29;;;;;;;;;;;25.50;43.10;;;;;;8464073;28;19908;-43
2022/07/06 06:46:30;;;;;;;;;;;25.50;43.10;;;;;;8463560;28;20011;-41
2022/07/06 06:50:30;;;;;;;;;;;25.50;43.10;;;;;;8463607;28;19929;-42
2022/07/06 06:54:31;;;;;;;;;;;25.50;43.20;;;;;;8464101;28;19919;-42
2022/07/06 06:58:31;;;;;;;;;;;25.50;43.20;;;;;;8463010;28;19915;-42
2022/07/06 07:02:32;;;;;;;;;;;25.50;43.20;;;;;;8462595;28;19939;-42
2022/07/06 07:06:32;;;;;;;;;;;25.50;43.10;;;;;;8463647;28;19912;-42
2022/07/06 07:10:33;;;;;;;;;;;25.50;43.20;;;;;;8462978;28;19972;-42
2022/07/06 07:14:33;;;;;;;;;;;25.50;43.20;;;;;;8463314;28;19918;-42
2022/07/06 07:18:33;;;;;;;;;;;25.50;43.20;;;;;;8463360;28;19943;-42
2022/07/06 07:22:34;;;;;;;;;;;25.50;43.20;;;;;;8462841;28;19911;-42
2022/07/06 07:26:34;;;;;;;;;;;25.50;43.20;;;;;;8463752;28;19915;-43
2022/07/06 07:30:35;;;;;;;;;;;25.50;43.20;;;;;;8463062;28;19920;-43
2022/07/06 07:34:36;;;;;;;;;;;25.50;43.20;;;;;;8462769;28;20276;-44
2022/07/06 07:38:36;;;;;;;;;;;25.50;43.20;;;;;;8463061;28;19912;-43
2022/07/06 07:42:40;;;;;;;;;;;25.50;43.20;;;;;;8463085;28;19918;-43
2022/07/06 07:46:40;;;;;;;;;;;25.40;43.10;;;;;;8465928;28;19919;-43
2022/07/06 07:50:41;;;;;;;;;;;25.40;43.10;;;;;;8469514;28;20285;-43
2022/07/06 07:54:42;;;;;;;;;;;25.50;43.20;;;;;;8469579;28;20272;-43
2022/07/06 07:58:42;;;;;;;;;;;25.50;43.10;;;;;;8468693;28;19912;-43
2022/07/06 08:02:43;;;;;;;;;;;25.50;43.10;;;;;;8469203;28;19907;-43
2022/07/06 08:06:43;;;;;;;;;;;25.50;43.10;;;;;;8469255;28;19912;-43
2022/07/06 08:10:44;;;;;;;;;;;25.60;43.20;;;;;;8468082;28;19919;-43
2022/07/06 08:14:45;;;;;;;;;;;25.50;43.10;;;;;;8468226;28;20041;-44
2022/07/06 08:18:45;;;;;;;;;;;25.60;43.10;;;;;;8468184;28;19912;-46
2022/07/06 08:22:45;;;;;;;;;;;25.60;43.10;;;;;;8467852;28;20349;-43
2022/07/06 08:26:46;;;;;;;;;;;25.60;43.20;;;;;;8468377;28;20493;-44
2022/07/06 08:30:47;;;;;;;;;;;25.60;43.10;;;;;;8467895;28;19927;-43
2022/07/06 08:34:47;;;;;;;;;;;25.60;43.10;;;;;;8467363;28;19912;-43
2022/07/06 08:38:48;;;;;;;;;;;25.60;43.10;;;;;;8468038;28;20272;-43
2022/07/06 08:42:53;;;;;;;;;;;25.60;43.10;;;;;;8467721;28;19957;-43
2022/07/06 08:46:54;;;;;;;;;;;25.60;43.10;;;;;;8467307;28;19912;-43
2022/07/06 08:50:54;;;;;;;;;;;25.70;43.20;;;;;;8467132;28;19927;-44
2022/07/06 08:54:55;;;;;;;;;;;25.60;43.10;;;;;;8467372;28;19907;-44
2022/07/06 08:58:56;;;;;;;;;;;25.70;43.10;;;;;;8466768;28;19919;-43
2022/07/06 09:02:57;;;;;;;;;;;25.70;43.10;;;;;;8466919;28;19918;-43
2022/07/06 09:06:58;;;;;;;;;;;25.70;43.20;;;;;;8467027;28;19913;-43
2022/07/06 09:10:58;;;;;;;;;;;25.70;43.20;;;;;;8466232;28;19954;-43
2022/07/06 09:14:59;;;;;;;;;;;25.70;43.10;;;;;;8466520;28;19911;-43
2022/07/06 09:19:00;;;;;;;;;;;25.80;43.30;;;;;;8466682;28;19915;-43
2022/07/06 09:23:01;;;;;;;;;;;25.80;43.20;;;;;;8465823;28;19946;-43
2022/07/06 09:27:04;;;;;;;;;;;25.80;43.20;;;;;;8466533;28;19916;-43
2022/07/06 09:31:08;;;;;;;;;;;25.80;43.10;;;;;;8466127;28;19931;-43
2022/07/06 09:35:18;;;;;;;;;;;25.80;43.10;;;;;;8465501;28;19918;-43
2022/07/06 09:39:23;;;;;;;;;;;25.80;43.10;;;;;;8465945;28;20269;-43
2022/07/06 09:43:24;;;;;;;;;;;25.90;43.10;;;;;;8465251;28;20328;-44
2022/07/06 09:47:25;;;;;;;;;;;25.90;43.20;;;;;;8465761;28;19907;-44
2022/07/06 09:51:30;;;;;;;;;;;25.90;43.00;;;;;;8465490;28;19959;-43
2022/07/06 09:55:31;;;;;;;;;;;25.90;43.00;;;;;;8464688;28;19911;-44
2022/07/06 09:59:32;;;;;;;;;;;25.90;43.00;;;;;;8465526;28;19915;-44
2022/07/06 10:03:33;;;;;;;;;;;26.00;43.10;;;;;;8463675;28;19990;-44
2022/07/06 10:07:33;;;;;;;;;;;26.00;43.10;;;;;;8464353;28;20421;-45
2022/07/06 10:11:36;;;;;;;;;;;26.00;43.10;;;;;;8464480;28;20265;-43
2022/07/06 10:15:37;;;;;;;;;;;26.00;43.00;;;;;;8464710;28;19912;-44
2022/07/06 10:19:38;;;;;;;;;;;26.00;43.00;;;;;;8464143;28;19908;-42
2022/07/06 10:23:40;;;;;;;;;;;26.00;43.00;;;;;;8464822;28;19908;-43
2022/07/06 10:27:40;;;;;;;;;;;26.00;43.00;;;;;;8464407;28;19915;-43
2022/07/06 10:31:43;;;;;;;;;;;26.10;43.00;;;;;;8463701;28;19920;-43
2022/07/06 10:35:44;;;;;;;;;;;26.10;43.00;;;;;;8464125;28;19960;-44
2022/07/06 10:44:16;;;;;;;;;;;26.10;42.90;;;;;;8464295;28;19956;-43
2022/07/06 10:48:17;;;;;;;;;;;26.10;42.90;;;;;;8464319;28;19926;-43
2022/07/06 10:52:18;;;;;;;;;;;26.10;42.80;;;;;;8463619;28;19927;-44
2022/07/06 10:56:31;;;;;;;;;;;26.20;42.80;;;;;;8463167;28;19911;-44
2022/07/06 11:00:53;;;;;;;;;;;26.20;42.80;;;;;;8466746;28;19916;-44
2022/07/06 11:04:53;;;;;;;;;;;26.20;42.80;;;;;;8463004;28;19912;-43
2022/07/06 11:08:56;;;;;;;;;;;26.20;42.90;;;;;;8463309;28;19911;-44
2022/07/06 11:13:03;;;;;;;;;;;26.20;42.70;;;;;;8463381;28;20311;-43
2022/07/06 11:17:04;;;;;;;;;;;26.20;42.70;;;;;;8427943;28;19912;-43
2022/07/06 11:21:14;;;;;;;;;;;26.30;42.70;;;;;;8453037;28;20424;-44
2022/07/06 11:25:16;;;;;;;;;;;26.30;42.70;;;;;;8470128;28;20471;-43
2022/07/06 11:29:18;;;;;;;;;;;26.30;42.70;;;;;;8469426;28;20002;-43
2022/07/06 11:33:31;;;;;;;;;;;26.30;42.60;;;;;;8470238;28;19937;-43
2022/07/06 11:37:32;;;;;;;;;;;26.40;42.80;;;;;;8468994;28;19912;-44
2022/07/06 11:41:33;;;;;;;;;;;26.40;42.70;;;;;;8469499;28;19954;-43
2022/07/06 11:45:33;;;;;;;;;;;26.40;42.70;;;;;;8469279;28;20369;-42
2022/07/06 11:49:34;;;;;;;;;;;26.40;42.70;;;;;;8468643;28;20002;-43
2022/07/06 11:53:35;;;;;;;;;;;26.40;42.60;;;;;;8469651;28;19907;-42
2022/07/06 11:57:36;;;;;;;;;;;26.50;42.70;;;;;;8469116;28;19918;-43
2022/07/06 12:01:41;;;;;;;;;;;26.50;42.60;;;;;;8468422;28;19912;-43
2022/07/06 12:05:41;;;;;;;;;;;26.60;42.60;;;;;;8468666;28;19912;-42
2022/07/06 12:09:43;;;;;;;;;;;26.60;42.60;;;;;;8468510;28;19985;-44
2022/07/06 12:13:44;;;;;;;;;;;26.60;42.40;;;;;;8468193;28;19908;-44
2022/07/06 12:17:47;;;;;;;;;;;26.60;42.30;;;;;;8468466;28;19912;-43
2022/07/06 12:21:49;;;;;;;;;;;26.60;42.30;;;;;;8468264;28;19916;-43
2022/07/06 12:25:53;;;;;;;;;;;26.60;42.10;;;;;;8467774;28;19951;-43
2022/07/06 12:30:07;;;;;;;;;;;26.70;42.10;;;;;;8468103;28;19984;-43
2022/07/06 12:34:17;;;;;;;;;;;26.70;42.10;;;;;;8467654;28;19922;-43
2022/07/06 12:38:22;;;;;;;;;;;26.70;42.00;;;;;;8467559;28;19922;-43
2022/07/06 12:42:22;;;;;;;;;;;26.80;42.00;;;;;;8467512;28;19911;-43
2022/07/06 12:46:26;;;;;;;;;;;26.80;41.90;;;;;;8466938;28;19968;-42
2022/07/06 12:50:38;;;;;;;;;;;26.80;42.00;;;;;;8467349;28;19926;-43
2022/07/06 12:54:46;;;;;;;;;;;26.80;41.90;;;;;;8467421;28;19908;-43
2022/07/06 12:58:56;;;;;;;;;;;26.80;41.80;;;;;;8466700;28;19911;-43
2022/07/06 13:02:58;;;;;;;;;;;26.80;41.70;;;;;;8465511;28;19912;-43
2022/07/06 13:06:59;;;;;;;;;;;26.90;41.80;;;;;;8466874;28;19982;-43
2022/07/06 13:11:00;;;;;;;;;;;26.90;41.70;;;;;;8466405;28;19951;-43
2022/07/06 13:15:00;;;;;;;;;;;26.90;41.60;;;;;;8466517;28;19915;-43
2022/07/06 13:19:01;;;;;;;;;;;26.90;41.60;;;;;;8466793;28;19977;-42
2022/07/06 13:23:02;;;;;;;;;;;26.90;41.70;;;;;;8465822;28;19912;-42
2022/07/06 13:27:02;;;;;;;;;;;26.90;41.70;;;;;;8466340;28;19915;-42
2022/07/06 13:31:03;;;;;;;;;;;26.90;41.60;;;;;;8465841;28;19947;-43
2022/07/06 13:35:03;;;;;;;;;;;26.90;41.70;;;;;;8465464;28;19961;-42
2022/07/06 13:39:04;;;;;;;;;;;26.90;41.60;;;;;;8466091;28;19907;-44
2022/07/06 13:43:05;;;;;;;;;;;27.00;41.60;;;;;;8464938;28;20284;-43
2022/07/06 13:47:05;;;;;;;;;;;27.00;41.70;;;;;;8465000;28;19922;-43
2022/07/06 13:51:05;;;;;;;;;;;27.00;41.50;;;;;;8465282;28;20403;-42
2022/07/06 13:55:06;;;;;;;;;;;27.00;41.60;;;;;;8465280;28;20363;-42
2022/07/06 13:59:07;;;;;;;;;;;27.00;41.50;;;;;;8464944;28;19908;-43
2022/07/06 14:03:08;;;;;;;;;;;27.00;41.50;;;;;;8465099;28;19922;-44
2022/07/06 14:07:08;;;;;;;;;;;27.00;41.50;;;;;;8464970;28;19915;-43
2022/07/06 14:11:09;;;;;;;;;;;27.00;41.40;;;;;;8464171;28;20292;-43
2022/07/06 14:15:09;;;;;;;;;;;27.00;41.40;;;;;;8465014;28;19908;-43
2022/07/06 14:19:10;;;;;;;;;;;27.00;41.40;;;;;;8464849;28;19912;-43
2022/07/06 14:23:11;;;;;;;;;;;27.10;41.40;;;;;;8463790;28;20360;-43
2022/07/06 14:27:11;;;;;;;;;;;27.10;41.40;;;;;;8464440;28;19916;-43
2022/07/06 14:31:12;;;;;;;;;;;27.10;41.30;;;;;;8464119;28;19915;-43
2022/07/06 14:35:12;;;;;;;;;;;27.10;41.20;;;;;;8463765;28;19932;-43
2022/07/06 14:39:13;;;;;;;;;;;27.10;41.20;;;;;;8464272;28;19915;-44
2022/07/06 14:43:13;;;;;;;;;;;27.10;41.20;;;;;;8463847;28;19912;-43
2022/07/06 14:47:14;;;;;;;;;;;27.10;41.10;;;;;;8463545;28;19990;-46
2022/07/06 14:51:14;;;;;;;;;;;27.10;41.10;;;;;;8463785;28;19916;-44
2022/07/06 14:55:15;;;;;;;;;;;27.10;41.10;;;;;;8463595;28;19965;-43
2022/07/06 14:59:15;;;;;;;;;;;27.10;41.00;;;;;;8463281;28;19995;-43
2022/07/06 15:03:16;;;;;;;;;;;27.10;41.10;;;;;;8462985;28;20011;-43
2022/07/06 15:07:16;;;;;;;;;;;27.10;41.00;;;;;;8463063;28;19915;-43
2022/07/06 15:11:17;;;;;;;;;;;27.20;41.10;;;;;;8462383;28;20349;-44
2022/07/06 15:15:17;;;;;;;;;;;27.20;41.00;;;;;;8463142;28;19919;-44
2022/07/06 15:19:18;;;;;;;;;;;27.20;40.90;;;;;;8463546;28;20283;-44
2022/07/06 15:23:18;;;;;;;;;;;27.10;41.00;;;;;;8462499;28;19918;-42
2022/07/06 15:27:19;;;;;;;;;;;27.20;40.90;;;;;;8462883;28;19994;-43
2022/07/06 15:31:19;;;;;;;;;;;27.20;41.00;;;;;;8444496;28;19924;-42
2022/07/06 15:35:20;;;;;;;;;;;27.20;41.00;;;;;;8462321;28;19919;-43
2022/07/06 15:39:20;;;;;;;;;;;27.20;40.90;;;;;;8462933;28;20324;-43
2022/07/06 15:43:21;;;;;;;;;;;27.20;41.10;;;;;;8462357;28;19911;-44
2022/07/06 15:47:25;;;;;;;;;;;27.20;41.00;;;;;;8462008;28;19935;-44
2022/07/06 15:51:25;;;;;;;;;;;27.20;41.00;;;;;;8462628;28;19929;-42
2022/07/06 15:55:26;;;;;;;;;;;27.20;40.90;;;;;;8462320;28;20386;-43
2022/07/06 15:59:26;;;;;;;;;;;27.20;41.00;;;;;;8452146;28;19916;-43
2022/07/06 16:03:27;;;;;;;;;;;27.20;41.00;;;;;;8453925;28;19921;-43
2022/07/06 16:07:27;;;;;;;;;;;27.20;41.10;;;;;;8452273;28;19922;-43
2022/07/06 16:11:28;;;;;;;;;;;27.20;41.10;;;;;;8452811;27;19928;-43
2022/07/06 16:34:09;;;;;;;;;;;27.20;41.10;;;;;;8442336;28;20006;-43
2022/07/06 16:38:09;;;;;;;;;;;27.20;41.20;;;;;;8464078;28;19911;-43
2022/07/06 16:42:10;;;;;;;;;;;27.20;41.20;;;;;;8467415;28;19912;-43
2022/07/06 16:46:10;;;;;;;;;;;27.20;41.20;;;;;;8463291;28;19979;-43
2022/07/06 16:50:11;;;;;;;;;;;27.20;41.20;;;;;;8462872;28;19927;-43
2022/07/06 16:54:11;;;;;;;;;;;27.20;41.30;;;;;;8448878;28;19911;-43
2022/07/06 16:58:12;;;;;;;;;;;27.10;41.30;;;;;;8466039;28;19919;-44
2022/07/06 17:02:14;;;;;;;;;;;27.10;41.90;;;;;;8448378;28;19911;-42
2022/07/06 17:06:14;;;;;;;;;;;27.10;41.40;;;;;;8448255;28;19911;-43
2022/07/06 17:10:15;;;;;;;;;;;27.10;41.50;;;;;;8465654;28;19987;-43
2022/07/06 17:14:15;;;;;;;;;;;27.10;41.50;;;;;;8466171;28;19919;-42
2022/07/06 17:18:16;;;;;;;;;;;27.10;41.50;;;;;;8463117;28;20257;-43
2022/07/06 17:22:18;;;;;;;;;;;27.10;42.10;;;;;;8466263;28;20347;-44
2022/07/06 17:26:19;;;;;;;;;;;27.10;41.50;;;;;;8462875;28;19973;-43
2022/07/06 17:30:19;;;;;;;;;;;27.00;41.50;;;;;;8479610;27;20481;-43
2022/07/06 17:34:19;;;;;;;;;;;27.00;41.60;;;;;;8470735;27;19966;-43
2022/07/06 17:38:20;;;;;;;;;;;27.00;41.60;;;;;;8439371;28;19966;-43
2022/07/06 17:42:22;;;;;;;;;;;27.00;41.60;;;;;;8436681;28;19928;-43
2022/07/06 17:46:22;;;;;;;;;;;27.00;41.60;;;;;;8415793;28;20002;-42
2022/07/06 17:50:23;;;;;;;;;;;27.00;41.70;;;;;;8465849;28;19922;-43
2022/07/06 17:54:23;;;;;;;;;;;27.00;41.70;;;;;;8430268;28;19912;-43
2022/07/06 17:58:24;;;;;;;;;;;27.00;41.70;;;;;;8447108;28;19919;-41
2022/07/06 18:02:24;;;;;;;;;;;27.00;41.60;;;;;;8457459;28;19916;-43
2022/07/06 18:06:25;;;;;;;;;;;27.00;41.60;;;;;;8464365;28;19907;-42
2022/07/06 18:10:25;;;;;;;;;;;27.00;41.70;;;;;;8464235;28;19915;-41
2022/07/06 18:14:26;;;;;;;;;;;27.00;41.70;;;;;;8455556;28;19919;-42
2022/07/06 18:18:26;;;;;;;;;;;27.00;41.70;;;;;;8451540;28;20006;-43
2022/07/06 18:22:28;;;;;;;;;;;27.00;41.70;;;;;;8439314;28;19912;-43
2022/07/06 18:26:28;;;;;;;;;;;26.90;41.60;;;;;;8452056;28;19919;-43
2022/07/06 18:30:29;;;;;;;;;;;27.00;41.70;;;;;;8431908;28;19946;-43
2022/07/06 18:34:30;;;;;;;;;;;26.90;41.70;;;;;;8458326;28;19927;-44
2022/07/06 18:38:30;;;;;;;;;;;26.90;41.70;;;;;;8447463;28;20011;-44
2022/07/06 18:42:31;;;;;;;;;;;26.90;41.70;;;;;;8430374;28;20292;-43
2022/07/06 18:46:32;;;;;;;;;;;26.90;41.80;;;;;;8428609;28;19917;-43
2022/07/06 18:50:32;;;;;;;;;;;26.90;41.80;;;;;;8463988;28;19966;-43
2022/07/06 18:54:33;;;;;;;;;;;26.90;41.80;;;;;;8438748;28;19915;-43
2022/07/06 19:12:33;;;;;;;;;;;26.80;41.80;;;;;;8439137;28;19924;-43
2022/07/06 19:16:34;;;;;;;;;;;26.80;41.80;;;;;;8418196;28;19919;-42
2022/07/06 19:20:35;;;;;;;;;;;26.80;41.80;;;;;;8461927;28;20352;-42
2022/07/06 19:24:35;;;;;;;;;;;26.80;41.90;;;;;;8463167;28;19918;-43
2022/07/06 19:28:36;;;;;;;;;;;26.80;41.90;;;;;;8462636;28;19908;-43
2022/07/06 19:32:36;;;;;;;;;;;26.80;41.90;;;;;;8463300;28;19932;-43
2022/07/06 19:36:41;;;;;;;;;;;26.80;41.90;;;;;;8463240;28;19955;-44
2022/07/06 19:40:42;;;;;;;;;;;26.70;41.90;;;;;;8462602;28;19946;-41
2022/07/06 19:44:43;;;;;;;;;;;26.70;41.90;;;;;;8469469;28;19957;-43
2022/07/06 19:48:43;;;;;;;;;;;26.70;41.80;;;;;;8469650;28;19915;-43
2022/07/06 19:52:44;;;;;;;;;;;26.70;41.90;;;;;;8468833;28;19923;-43
2022/07/06 19:56:44;;;;;;;;;;;26.70;41.80;;;;;;8469706;28;19908;-43
2022/07/06 20:00:44;;;;;;;;;;;26.70;41.80;;;;;;8469196;28;19954;-45
2022/07/06 20:04:45;;;;;;;;;;;26.70;41.90;;;;;;8468432;28;19912;-43
2022/07/06 20:08:45;;;;;;;;;;;26.70;41.80;;;;;;8468881;28;19919;-43
2022/07/06 20:12:46;;;;;;;;;;;26.70;41.90;;;;;;8468640;28;19920;-43
2022/07/06 20:16:46;;;;;;;;;;;26.70;41.90;;;;;;8468223;28;19915;-43
2022/07/06 20:20:47;;;;;;;;;;;26.70;41.80;;;;;;8468661;28;19919;-43
2022/07/06 20:24:49;;;;;;;;;;;26.70;41.80;;;;;;8450015;28;19957;-43
2022/07/06 20:28:49;;;;;;;;;;;26.60;41.80;;;;;;8467739;28;19923;-43
2022/07/06 20:32:50;;;;;;;;;;;26.60;41.80;;;;;;8467889;28;20288;-43
2022/07/06 20:36:50;;;;;;;;;;;26.70;41.80;;;;;;8468023;28;19915;-43
2022/07/06 20:40:50;;;;;;;;;;;26.60;41.80;;;;;;8467426;28;19935;-43
2022/07/06 20:44:51;;;;;;;;;;;26.60;41.80;;;;;;8468030;28;20261;-43
2022/07/06 20:48:52;;;;;;;;;;;26.60;41.80;;;;;;8467666;28;19911;-43
2022/07/06 20:52:52;;;;;;;;;;;26.60;41.80;;;;;;8466376;28;19920;-44
2022/07/06 20:56:53;;;;;;;;;;;26.60;41.80;;;;;;8467558;28;19939;-43
2022/07/06 21:00:54;;;;;;;;;;;26.50;41.70;;;;;;8467219;28;20360;-43
2022/07/06 21:04:54;;;;;;;;;;;26.60;41.70;;;;;;8466635;28;20324;-43
2022/07/06 21:08:55;;;;;;;;;;;26.60;41.70;;;;;;8466988;28;19911;-43
2022/07/06 21:12:55;;;;;;;;;;;26.50;41.70;;;;;;8466703;28;20403;-43
2022/07/06 21:16:56;;;;;;;;;;;26.50;41.60;;;;;;8466422;28;19969;-42
2022/07/06 21:20:56;;;;;;;;;;;26.50;41.70;;;;;;8466540;28;20387;-43
2022/07/06 21:24:57;;;;;;;;;;;26.50;41.70;;;;;;8466344;28;19951;-43
2022/07/06 21:28:58;;;;;;;;;;;26.50;41.70;;;;;;8465875;28;20275;-43
2022/07/06 21:32:59;;;;;;;;;;;26.50;41.70;;;;;;8465984;28;19919;-43
2022/07/06 21:36:59;;;;;;;;;;;26.50;41.70;;;;;;8466325;28;19916;-43
2022/07/06 21:41:00;;;;;;;;;;;26.50;41.70;;;;;;8465383;28;20004;-43
2022/07/06 21:45:00;;;;;;;;;;;26.50;41.70;;;;;;8465694;28;19911;-43
2022/07/06 21:49:01;;;;;;;;;;;26.50;41.70;;;;;;8465726;28;19961;-42
2022/07/06 21:53:01;;;;;;;;;;;26.40;41.70;;;;;;8464891;28;19919;-43
2022/07/06 21:57:02;;;;;;;;;;;26.40;41.70;;;;;;8465416;28;19970;-43
2022/07/06 22:01:03;;;;;;;;;;;26.40;41.70;;;;;;8458595;28;19943;-43
2022/07/06 22:05:03;;;;;;;;;;;26.40;41.70;;;;;;8433591;28;19912;-43
2022/07/06 22:09:04;;;;;;;;;;;26.40;41.70;;;;;;8461525;28;19907;-43
2022/07/06 22:13:04;;;;;;;;;;;26.40;41.60;;;;;;8432353;28;19920;-43
2022/07/06 22:17:05;;;;;;;;;;;26.40;41.70;;;;;;8464481;28;19998;-43
2022/07/06 22:21:06;;;;;;;;;;;26.40;42.30;;;;;;8464557;28;20006;-43
2022/07/06 22:25:06;;;;;;;;;;;26.30;41.70;;;;;;8464459;28;19908;-44
2022/07/06 22:29:07;;;;;;;;;;;26.30;41.70;;;;;;8463938;28;19951;-44
2022/07/06 22:33:07;;;;;;;;;;;26.30;41.70;;;;;;8464431;28;19932;-43
2022/07/06 22:37:08;;;;;;;;;;;26.30;41.80;;;;;;8464462;28;20372;-42
2022/07/06 22:41:08;;;;;;;;;;;26.30;41.80;;;;;;8463587;28;19916;-43
2022/07/06 22:45:09;;;;;;;;;;;26.30;41.70;;;;;;8463971;28;20376;-43
2022/07/06 22:49:09;;;;;;;;;;;26.20;41.70;;;;;;8463929;28;20414;-44
2022/07/06 22:53:10;;;;;;;;;;;26.20;41.70;;;;;;8463384;28;19955;-43
2022/07/06 22:57:10;;;;;;;;;;;26.20;41.70;;;;;;8463632;28;19964;-43
2022/07/06 23:01:15;;;;;;;;;;;26.20;41.70;;;;;;8463514;28;20346;-43
2022/07/06 23:05:15;;;;;;;;;;;26.20;41.70;;;;;;8463017;28;19919;-44
2022/07/06 23:09:16;;;;;;;;;;;26.20;41.70;;;;;;8463463;28;19914;-43
2022/07/06 23:13:16;;;;;;;;;;;26.20;41.70;;;;;;8463546;28;19919;-43
2022/07/06 23:17:16;;;;;;;;;;;26.20;41.70;;;;;;8467303;28;20006;-43
2022/07/06 23:21:17;;;;;;;;;;;26.20;41.70;;;;;;8470151;28;19916;-43
2022/07/06 23:25:17;;;;;;;;;;;26.20;41.70;;;;;;8470180;28;19931;-44
2022/07/06 23:29:18;;;;;;;;;;;26.10;41.70;;;;;;8469406;28;19916;-44
2022/07/06 23:33:18;;;;;;;;;;;26.10;41.70;;;;;;8470245;28;19919;-43
2022/07/06 23:37:19;;;;;;;;;;;26.10;41.70;;;;;;8469789;28;20006;-44
2022/07/06 23:41:20;;;;;;;;;;;26.10;41.80;;;;;;8469545;28;20415;-44
2022/07/06 23:45:20;;;;;;;;;;;26.10;41.80;;;;;;8469524;28;19912;-43
2022/07/06 23:49:20;;;;;;;;;;;26.10;41.80;;;;;;8469473;28;19919;-43
2022/07/06 23:53:21;;;;;;;;;;;26.00;41.70;;;;;;8469018;28;19922;-44
2022/07/06 23:57:21;;;;;;;;;;;26.10;41.80;;;;;;8469219;28;19958;-44
